Data for 11/05/2010

Time Sea-Level Adjusted Pressure Absolute Pressure Temperature Relative Humidity Dew Point   
(mb) (inHg) (mb) (inHg) (C) (F) (%) (C) (F)
00:05 1022 30.18 852 25.16 7.2 45 46 -3.5 25.7
00:10 1022 30.18 852 25.16 6.8 44.2 48 -3.5 25.6
00:15 1023 30.21 852 25.16 6.6 43.9 48 -3.7 25.3
00:20 1022 30.18 852 25.16 6.7 44.1 47 -3.9 25
00:25 1022 30.18 852 25.16 7.1 44.7 46 -3.7 25.3
00:30 1022 30.18 852 25.16 7.1 44.7 47 -3.5 25.6
00:35 1022 30.18 852 25.16 7 44.6 47 -3.4 25.8
00:40 1022 30.18 852 25.16 6.9 44.4 48 -3.4 25.8
00:45 1022 30.18 852 25.16 6.6 43.9 50 -3.1 26.5
00:50 1022 30.18 852 25.16 6.4 43.6 50 -3.3 26
00:55 1022 30.18 852 25.16 6.5 43.7 48 -3.6 25.5
01:00 1022 30.18 852 25.16 7 44.5 46 -3.9 25
01:05 1022 30.18 852 25.16 7.2 44.9 47 -3.3 26
01:10 1022 30.18 852 25.16 7.1 44.8 50 -2.5 27.4
01:15 1022 30.18 852 25.16 6.7 44 52 -2.5 27.5
01:20 1022 30.18 852 25.16 6.6 43.9 53 -2.2 28.1
01:25 1022 30.18 852 25.16 6.5 43.7 54 -2.1 28.2
01:30 1022 30.18 852 25.16 6.7 44.1 51 -2.6 27.3
01:35 1022 30.18 852 25.16 7.4 45.3 51 -2 28.4
01:40 1022 30.18 851 25.13 6.5 43.7 54 -2.2 28.1
01:45 1022 30.18 851 25.13 6.5 43.6 51 -3.1 26.5
01:50 1022 30.18 851 25.13 6.8 44.3 50 -3 26.7
01:55 1022 30.18 851 25.13 6.7 44 49 -3.3 26.1
02:00 1022 30.18 851 25.13 6.7 44 51 -2.8 26.9
02:05 1022 30.18 851 25.13 6.3 43.3 51 -3.3 26.1
02:10 1022 30.18 851 25.13 6.7 44.1 48 -3.4 25.9
02:15 1022 30.18 851 25.13 6.7 44 49 -3.1 26.3
02:20 1022 30.18 851 25.13 6.4 43.6 51 -3 26.6
02:25 1022 30.18 851 25.13 6.6 43.8 49 -3.4 25.8
02:30 1022 30.18 851 25.13 7.1 44.9 49 -2.9 26.7
02:35 1022 30.18 851 25.13 6.6 43.8 52 -2.6 27.3
02:40 1022 30.18 851 25.13 6.5 43.6 51 -3.1 26.5
02:45 1022 30.18 851 25.13 6.4 43.6 50 -3.2 26.2
02:50 1022 30.18 851 25.13 6.5 43.7 52 -2.7 27.2
02:55 1022 30.18 851 25.13 6.5 43.6 52 -2.6 27.3
03:00 1022 30.18 851 25.13 6.3 43.4 52 -2.7 27.1
03:05 1022 30.18 851 25.13 6.6 43.9 52 -2.5 27.5
03:10 1022 30.18 851 25.13 5.3 41.6 59 -2.1 28.2
03:15 1022 30.18 851 25.13 4.6 40.3 57 -3.1 26.4
03:20 1021 30.15 851 25.13 5.4 41.7 53 -3.4 25.9
03:25 1021 30.15 851 25.13 5.8 42.4 53 -3 26.5
03:30 1021 30.15 851 25.13 5.3 41.6 54 -3.2 26.3
03:35 1021 30.15 851 25.13 5.6 42.1 50 -3.9 25
03:40 1021 30.15 851 25.13 6.6 44 49 -3.4 25.9
03:45 1021 30.15 851 25.13 6.8 44.3 49 -3.1 26.3
03:50 1021 30.15 851 25.13 6.9 44.3 47 -3.6 25.6
03:55 1021 30.15 851 25.13 7.3 45.1 47 -3.3 26.1
04:00 1021 30.15 851 25.13 7 44.5 51 -2.5 27.5
04:05 1021 30.15 851 25.13 6.1 43 56 -1.9 28.5
04:10 1021 30.15 851 25.13 6 42.8 53 -2.9 26.8
04:15 1021 30.15 850 25.1 6.1 43 53 -2.7 27.1
04:20 1021 30.15 850 25.1 5.9 42.7 55 -2.5 27.5
04:25 1021 30.15 850 25.1 5.3 41.6 56 -2.6 27.3
04:30 1021 30.15 850 25.1 5.1 41.1 56 -2.9 26.8
04:35 1021 30.15 850 25.1 5.1 41.2 56 -3 26.7
04:40 1021 30.15 850 25.1 5.6 42.1 54 -3 26.6
04:45 1021 30.15 850 25.1 6 42.8 54 -2.6 27.3
04:50 1021 30.15 850 25.1 6 42.8 55 -2.4 27.6
04:55 1021 30.15 850 25.1 5.9 42.7 54 -2.7 27.1
05:00 1021 30.15 850 25.1 6.1 43 54 -2.5 27.6
05:05 1021 30.15 850 25.1 5.7 42.2 56 -2.5 27.5
05:10 1021 30.15 850 25.1 5.5 41.9 57 -2.4 27.7
05:15 1021 30.15 850 25.1 5.2 41.4 58 -2.4 27.6
05:20 1021 30.15 850 25.1 5.2 41.3 58 -2.4 27.6
05:25 1021 30.15 850 25.1 5 41 58 -2.6 27.3
05:30 1021 30.15 850 25.1 5 41 58 -2.5 27.6
05:35 1021 30.15 850 25.1 5.3 41.5 57 -2.5 27.5
05:40 1021 30.15 850 25.1 5.4 41.7 56 -2.7 27.1
05:45 1021 30.15 850 25.1 5.8 42.5 56 -2.3 27.9
05:50 1021 30.15 850 25.1 5.5 41.9 56 -2.6 27.3
05:55 1021 30.15 850 25.1 5.9 42.6 55 -2.5 27.5
06:00 1021 30.15 850 25.1 5.9 42.5 56 -2.3 27.9
06:05 1021 30.15 850 25.1 5.7 42.3 56 -2.5 27.6
06:10 1021 30.15 850 25.1 5.5 42 57 -2.3 27.8
06:15 1021 30.15 850 25.1 5.3 41.5 57 -2.5 27.5
06:20 1021 30.15 850 25.1 5.2 41.4 58 -2.3 27.8
06:25 1021 30.15 850 25.1 4.9 40.9 59 -2.3 27.9
06:30 1021 30.15 850 25.1 4.8 40.7 59 -2.5 27.5
06:35 1020 30.12 850 25.1 4.7 40.4 60 -2.4 27.6
06:40 1020 30.12 850 25.1 4.5 40.2 59 -2.7 27.2
06:45 1020 30.12 850 25.1 4.8 40.6 59 -2.6 27.2
06:50 1020 30.12 850 25.1 4.9 40.9 59 -2.5 27.5
06:55 1020 30.12 850 25.1 5.1 41.2 56 -2.9 26.8
07:00 1020 30.12 850 25.1 5.4 41.7 57 -2.4 27.7
07:05 1020 30.12 850 25.1 5.2 41.3 58 -2.4 27.6
07:10 1020 30.12 850 25.1 5.1 41.1 59 -2.4 27.7
07:15 1020 30.12 850 25.1 4.9 40.8 59 -2.5 27.5
07:20 1020 30.12 850 25.1 4.9 40.8 57 -2.8 26.9
07:25 1020 30.12 850 25.1 5.6 42.1 56 -2.5 27.5
07:30 1020 30.12 850 25.1 6.3 43.4 51 -3.2 26.3
07:35 1020 30.12 850 25.1 6.7 44.1 52 -2.4 27.7
07:40 1020 30.12 849 25.07 6.5 43.7 53 -2.4 27.7
07:45 1020 30.12 849 25.07 6.4 43.5 54 -2.3 27.8
07:50 1020 30.12 849 25.07 6.1 43 55 -2.2 28.1
07:55 1020 30.12 849 25.07 5.6 42 59 -1.7 28.9
08:00 1020 30.12 850 25.1 4.7 40.4 64 -1.6 29.2
08:05 1020 30.12 849 25.07 3.7 38.6 66 -2.1 28.2
08:10 1020 30.12 849 25.07 4.4 40 63 -2.1 28.3
08:15 1020 30.12 849 25.07 5 41 60 -2.2 28
08:20 1020 30.12 849 25.07 5 40.9 61 -1.9 28.6
08:25 1020 30.12 849 25.07 4.4 39.8 63 -2.1 28.2
08:30 1020 30.12 849 25.07 4.7 40.4 63 -1.9 28.6
08:35 1020 30.12 849 25.07 5.4 41.6 57 -2.4 27.6
08:40 1020 30.12 849 25.07 6.2 43.2 53 -2.6 27.3
08:45 1020 30.12 850 25.1 6.4 43.4 55 -2.1 28.2
08:50 1020 30.12 849 25.07 6.6 43.9 51 -2.7 27.1
08:55 1020 30.12 849 25.07 6.9 44.5 52 -2.3 27.8
09:00 1020 30.12 849 25.07 6.5 43.8 53 -2.3 27.9
09:05 1020 30.12 849 25.07 5.8 42.4 55 -2.5 27.4
09:10 1020 30.12 849 25.07 6.3 43.3 55 -2.1 28.2
09:15 1020 30.12 849 25.07 6.5 43.7 55 -2 28.4
09:20 1020 30.12 849 25.07 6.5 43.8 54 -2 28.4
09:25 1020 30.12 849 25.07 6.3 43.3 56 -1.7 28.9
09:30 1020 30.12 849 25.07 5.9 42.6 55 -2.4 27.6
09:35 1020 30.12 849 25.07 6.8 44.3 50 -2.8 27
09:40 1020 30.12 849 25.07 8 46.3 48 -2.3 27.8
09:45 1020 30.12 849 25.07 8.6 47.5 47 -1.9 28.5
09:50 1020 30.12 849 25.07 9.1 48.4 46 -1.9 28.6
09:55 1020 30.12 849 25.07 9.7 49.5 44 -2 28.5
10:00 1020 30.12 849 25.07 10.2 50.4 42 -2 28.4
10:05 1020 30.12 849 25.07 10.9 51.7 40 -2 28.4
10:10 1020 30.12 849 25.07 10.9 51.6 41 -1.9 28.6
10:15 1020 30.12 849 25.07 11.1 52.1 40 -2 28.5
10:20 1020 30.12 849 25.07 11.6 52.9 39 -1.9 28.6
10:25 1020 30.12 849 25.07 12 53.6 39 -1.4 29.6
10:30 1020 30.12 849 25.07 11.6 52.9 40 -1.3 29.6
10:35 1020 30.12 849 25.07 11.3 52.4 41 -1.5 29.4
10:40 1020 30.12 849 25.07 11.3 52.3 43 -0.7 30.8
10:45 1020 30.12 849 25.07 10.9 51.6 41 -1.7 29
10:50 1020 30.12 849 25.07 11 51.8 41 -1.7 28.9
10:55 1020 30.12 849 25.07 10.9 51.6 41 -1.9 28.6
11:00 1020 30.12 849 25.07 11.4 52.5 39 -2.2 28.1
11:05 1020 30.12 849 25.07 11.7 53 39 -1.8 28.8
11:10 1020 30.12 849 25.07 11.8 53.3 38 -1.9 28.6
11:15 1020 30.12 849 25.07 12.4 54.4 36 -2.1 28.2
11:20 1020 30.12 849 25.07 12.6 54.6 36 -1.9 28.6
11:25 1020 30.12 849 25.07 12.8 55.1 35 -2.1 28.2
11:30 1020 30.12 849 25.07 13.5 56.4 33 -2.2 28.1
11:35 1020 30.12 849 25.07 13.1 55.6 39 -0.6 30.9
11:40 1020 30.12 849 25.07 12.9 55.1 36 -1.7 29
11:45 1020 30.12 849 25.07 13.2 55.8 35 -1.8 28.8
11:50 1019 30.09 849 25.07 12.6 54.6 37 -1.7 29
11:55 1019 30.09 849 25.07 12.7 54.8 35 -2.3 27.9
12:00 1019 30.09 849 25.07 12.7 54.8 36 -2.1 28.2
12:05 1019 30.09 848 25.04 13 55.3 34 -2.5 27.4
12:10 1019 30.09 848 25.04 13 55.4 35 -1.9 28.6
12:15 1019 30.09 848 25.04 13.8 56.8 33 -2 28.4
12:20 1019 30.09 848 25.04 14 57.2 33 -1.8 28.8
12:25 1019 30.09 848 25.04 14.4 58 32 -2.2 28.1
12:30 1019 30.09 848 25.04 15.4 59.7 30 -2.2 28
12:35 1019 30.09 848 25.04 15.9 60.6 29 -2.2 28.1
12:40 1019 30.09 848 25.04 15.9 60.7 32 -0.7 30.7
12:45 1019 30.09 848 25.04 15.6 60 29 -2.1 28.2
12:50 1019 30.09 848 25.04 16.1 61 29 -1.9 28.6
12:55 1019 30.09 848 25.04 16.9 62.3 28 -1.5 29.4
13:00 1019 30.09 848 25.04 17.3 63.1 27 -1.8 28.8
13:05 1018 30.06 848 25.04 17 62.6 28 -1.4 29.5
13:10 1018 30.06 848 25.04 17.1 62.8 27 -1.7 28.9
13:15 1018 30.06 848 25.04 17.5 63.4 28 -1.3 29.7
13:20 1018 30.06 848 25.04 17.7 63.8 27 -1.4 29.4
13:25 1018 30.06 848 25.04 17.7 63.8 28 -1 30.1
13:30 1018 30.06 848 25.04 17.3 63.2 28 -1 30.1
13:35 1018 30.06 848 25.04 17.1 62.7 31 -0 31.9
13:40 1018 30.06 847 25.01 16 60.8 31 -1 30.1
13:45 1018 30.06 847 25.01 16.9 62.4 29 -1.4 29.5
13:50 1018 30.06 847 25.01 16.8 62.2 31 -0.4 31.4
13:55 1018 30.06 847 25.01 15.5 60 32 -1.1 30.1
14:00 1018 30.06 847 25.01 15.7 60.3 31 -1.3 29.7
14:05 1018 30.06 847 25.01 16.2 61.2 31 -0.6 30.9
14:10 1018 30.06 847 25.01 16.8 62.2 28 -1.6 29.1
14:15 1018 30.06 847 25.01 17.4 63.2 29 -0.9 30.4
14:20 1018 30.06 847 25.01 16.8 62.2 30 -0.7 30.7
14:25 1018 30.06 847 25.01 16.4 61.5 29 -1.7 28.9
14:30 1018 30.06 847 25.01 17.2 63 28 -1.1 29.9
14:35 1018 30.06 847 25.01 17.2 62.9 28 -1.3 29.7
14:40 1018 30.06 847 25.01 17.3 63.2 31 -0.1 31.9
14:45 1017 30.03 847 25.01 17.4 63.3 27 -1.8 28.8
14:50 1017 30.03 847 25.01 18.4 65.1 26 -1.4 29.5
14:55 1017 30.03 847 25.01 18.5 65.2 26 -1.1 30.1
15:00 1017 30.03 847 25.01 18.3 64.9 27 -0.7 30.7
15:05 1017 30.03 846 24.98 18.1 64.5 28 -0.8 30.6
15:10 1017 30.03 846 24.98 17.8 64.1 28 -0.7 30.8
15:15 1017 30.03 846 24.98 18.1 64.5 28 -0.8 30.6
15:20 1017 30.03 846 24.98 18.1 64.7 28 -0.4 31.3
15:25 1017 30.03 846 24.98 17.8 64 29 -0.4 31.3
15:30 1017 30.03 846 24.98 17.5 63.5 29 -0.8 30.6
15:35 1017 30.03 846 24.98 17.6 63.6 29 -0.5 31.2
15:40 1017 30.03 846 24.98 17.1 62.8 30 -0.5 31.1
15:45 1017 30.03 846 24.98 17.3 63.2 30 -0.4 31.2
15:50 1017 30.03 846 24.98 17.8 64 29 -0.6 30.9
15:55 1017 30.03 846 24.98 18.3 64.9 28 -0.6 30.9
16:00 1017 30.03 846 24.98 19 66.2 26 -0.7 30.8
16:05 1017 30.03 846 24.98 19.4 66.8 26 -0.6 30.8
16:10 1017 30.03 846 24.98 20.2 68.3 25 -0.5 31
16:15 1017 30.03 846 24.98 20.5 68.9 24 -0.4 31.2
16:20 1017 30.03 846 24.98 20 68.1 28 1.4 34.4
16:25 1017 30.03 846 24.98 18.9 66.1 30 1 33.7
16:30 1017 30.03 846 24.98 18.2 64.8 28 -0.7 30.7
16:35 1017 30.03 846 24.98 17.8 64.1 29 -0.2 31.6
16:40 1017 30.03 846 24.98 17.4 63.4 30 -0.2 31.6
16:45 1017 30.03 846 24.98 17.2 63 30 -0.5 31
16:50 1017 30.03 846 24.98 17.4 63.3 30 -0.4 31.2
16:55 1017 30.03 846 24.98 17.4 63.3 29 -0.5 31
17:00 1017 30.03 846 24.98 17.3 63.2 29 -0.6 30.9
17:05 1017 30.03 846 24.98 17.3 63.1 29 -0.6 30.9
17:10 1017 30.03 846 24.98 17.2 63 29 -0.7 30.8
17:15 1017 30.03 846 24.98 17 62.6 30 -0.4 31.3
17:20 1017 30.03 846 24.98 16.7 62 30 -0.6 30.8
17:25 1017 30.03 846 24.98 16.5 61.6 32 -0.1 31.9
17:30 1017 30.03 846 24.98 16.1 61.1 33 0.1 32.1
17:35 1017 30.03 846 24.98 16.1 60.9 33 -0.3 31.5
17:40 1017 30.03 846 24.98 16.1 61 33 -0.2 31.6
17:45 1017 30.03 846 24.98 16.1 61.1 31 -1 30.2
17:50 1017 30.03 846 24.98 16.2 61.1 32 -0.5 31.1
17:55 1017 30.03 846 24.98 15.8 60.4 33 -0.2 31.7
18:00 1017 30.03 846 24.98 15.6 60.1 33 -0.3 31.4
18:05 1016 30 846 24.98 15.5 59.8 34 -0.2 31.6
18:10 1016 30 846 24.98 15.1 59.2 36 0.2 32.3
18:15 1016 30 846 24.98 14.7 58.5 40 1.3 34.3
18:20 1016 30 846 24.98 14.4 57.9 40 1 33.9
18:25 1017 30.03 846 24.98 14.4 57.8 34 -1.1 30
18:30 1017 30.03 846 24.98 14.3 57.7 44 2.4 36.3
18:35 1017 30.03 846 24.98 14 57.2 40 0.8 33.5
18:40 1017 30.03 846 24.98 13.6 56.5 41 0.7 33.3
18:45 1017 30.03 846 24.98 13.2 55.7 43 0.9 33.6
18:50 1017 30.03 846 24.98 12.7 54.9 37 -1.4 29.4
18:55 1017 30.03 846 24.98 13.4 56.1 39 -0.1 31.8
19:00 1017 30.03 846 24.98 13.5 56.3 38 -0.5 31.1
19:05 1017 30.03 846 24.98 13.2 55.8 39 -0.2 31.6
19:10 1017 30.03 846 24.98 12.5 54.5 42 -0.1 31.8
19:15 1017 30.03 846 24.98 12.3 54.2 44 0.4 32.6
19:20 1017 30.03 846 24.98 12.5 54.4 37 -1.6 29.1
19:25 1017 30.03 846 24.98 13 55.3 33 -2.7 27.1
19:30 1017 30.03 846 24.98 13.3 56 35 -1.7 29
19:35 1017 30.03 846 24.98 13.1 55.6 35 -2 28.5
19:40 1016 30 846 24.98 12.7 54.8 38 -1.3 29.7
19:45 1017 30.03 846 24.98 12.4 54.2 37 -1.7 28.9
19:50 1017 30.03 846 24.98 12.2 54 37 -1.9 28.7
19:55 1017 30.03 846 24.98 12 53.5 38 -1.7 28.9
20:00 1016 30 846 24.98 12 53.7 37 -2.1 28.2
20:05 1016 30 846 24.98 12 53.6 36 -2.7 27.1
20:10 1017 30.03 846 24.98 12.5 54.6 35 -2.6 27.3
20:15 1017 30.03 846 24.98 13.2 55.8 31 -3.4 25.8
20:20 1017 30.03 846 24.98 13.9 57 31 -2.8 27
20:25 1017 30.03 846 24.98 14.4 58 29 -3.1 26.4
20:30 1016 30 846 24.98 14.7 58.4 31 -2.2 28.1
20:35 1017 30.03 846 24.98 13.7 56.7 33 -2.4 27.7
20:40 1016 30 846 24.98 13.2 55.8 31 -3.4 25.9
20:45 1017 30.03 846 24.98 13.5 56.2 34 -2.1 28.2
20:50 1017 30.03 846 24.98 12.8 55 33 -2.9 26.9
20:55 1017 30.03 846 24.98 13 55.4 32 -3.3 26.1
21:00 1017 30.03 846 24.98 13.5 56.3 31 -3.2 26.2
21:05 1017 30.03 846 24.98 13.6 56.5 32 -2.6 27.4
21:10 1017 30.03 846 24.98 13.5 56.3 31 -3.3 26
21:15 1017 30.03 846 24.98 14.1 57.4 29 -3.4 25.9
21:20 1017 30.03 846 24.98 14 57.3 30 -3 26.6
21:25 1017 30.03 846 24.98 13.7 56.6 30 -3.5 25.7
21:30 1017 30.03 846 24.98 13.6 56.5 31 -2.9 26.7
21:35 1017 30.03 846 24.98 13.4 56.1 31 -3.4 25.9
21:40 1017 30.03 846 24.98 13.5 56.3 31 -3.3 26.1
21:45 1017 30.03 846 24.98 13.3 56 32 -3.1 26.4
21:50 1017 30.03 846 24.98 13.1 55.5 32 -3.2 26.3
21:55 1017 30.03 846 24.98 12.8 55.1 32 -3.6 25.6
22:00 1017 30.03 846 24.98 13.3 55.9 30 -3.6 25.4
22:05 1017 30.03 846 24.98 13.8 56.9 30 -3.5 25.7
22:10 1017 30.03 846 24.98 13.9 57.1 30 -3.5 25.8
22:15 1017 30.03 846 24.98 13.9 57 31 -3 26.5
22:20 1017 30.03 846 24.98 13.6 56.4 31 -3 26.6
22:25 1017 30.03 846 24.98 13 55.4 33 -2.7 27.1
22:30 1017 30.03 846 24.98 12.1 53.9 34 -3.3 26
22:35 1017 30.03 846 24.98 12.2 54 34 -3.2 26.2
22:40 1017 30.03 846 24.98 12.5 54.5 33 -3.2 26.2
22:45 1017 30.03 846 24.98 12.2 54 34 -3.1 26.5
22:50 1017 30.03 846 24.98 11.8 53.3 36 -2.8 27
22:55 1017 30.03 846 24.98 11.5 52.6 36 -3.1 26.4
23:00 1017 30.03 846 24.98 11.8 53.2 35 -3.3 26.1
23:05 1017 30.03 846 24.98 11.7 53.1 35 -3.3 26.1
23:10 1017 30.03 846 24.98 11.5 52.7 36 -3 26.6
23:15 1017 30.03 846 24.98 11.4 52.6 36 -3 26.7
23:20 1017 30.03 846 24.98 11.6 52.8 36 -3.1 26.4
23:25 1017 30.03 846 24.98 12 53.5 34 -3.5 25.6
23:30 1017 30.03 846 24.98 12.1 53.7 34 -3.1 26.5
23:35 1017 30.03 846 24.98 11.8 53.2 35 -3 26.6
23:40 1017 30.03 846 24.98 11.8 53.2 34 -3.3 26
23:45 1017 30.03 846 24.98 11.9 53.4 35 -3 26.6
23:50 1017 30.03 846 24.98 11.8 53.2 35 -3.3 26
23:55 1017 30.03 846 24.98 11.9 53.3 35 -3 26.6
24:00 1017 30.03 846 24.98 11.6 52.9 36 -2.8 27